Norbank — PGIS — position and weather

sailwx.info

Track history (hours):
 
Tides and Currents Weather Stations Pressure Air Temp Water Temp Dewpoint Dewpoint Depression Visibility Wind Speed Wind Dir Waves Ship Positions

Norbank

Operator: P & O Ferries

Last reported at 2020-Mar-29 14:28 UTC. Time now 2020-Mar-29 15:55 UTC.
Position N 53°21' W 006°13'.

Length 167 m; draft 5.4 m.

Type: Ship (hazmat cat B). MMSI: 246213000.

Date/timePositionNaut miles runAvg speedWind from/ knotsBaromVisibWave heightAir tempDewpointWater temp
2020-Mar-29 14:28N 53°21' W 006°13'0 0.0
2020-Mar-29 13:16N 53°21' W 006°13'0 0.0
2020-Mar-29 12:58N 53°21' W 006°13'0 0.0
2020-Mar-29 12:30N 53°21' W 006°13'0 0.0
2020-Mar-29 11:30N 53°21' W 006°13'0 0.0
2020-Mar-29 08:56N 53°21' W 006°13'16 3.0
2020-Mar-29 03:30N 53°24' W 005°46'7216.7
2020-Mar-28 23:13N 53°33' W 003°47'2812.6
2020-Mar-28 21:00N 53°27' W 003°01'0 0.3
2020-Mar-28 19:28N 53°27' W 003°01'7 1.7
2020-Mar-28 15:30N 53°32' W 003°10'11015.0
2020-Mar-28 08:12N 53°21' W 006°13'0 0.0
2020-Mar-28 06:29N 53°21' W 006°13'0 0.0
2020-Mar-28 05:59N 53°21' W 006°13'10614.2
2020-Mar-27 22:30N 53°32' W 003°16'1010.3
2020-Mar-27 21:30N 53°27' W 003°01'0 0.1
2020-Mar-27 16:59N 53°27' W 003°01'0 0.9
2020-Mar-27 16:30N 53°27' W 003°01'0 0.3
2020-Mar-27 16:00N 53°27' W 003°01'1413.6
2020-Mar-27 15:00N 53°31' W 003°23'5116.2
2020-Mar-27 11:50N 53°35' W 004°49'2917.2
2020-Mar-27 10:09N 53°27' W 005°36'816.4
2020-Mar-27 09:41N 53°24' W 005°48'15 8.8
2020-Mar-27 07:57N 53°21' W 006°13'0 0.0
2020-Mar-27 05:47N 53°21' W 006°13'2610.5
2020-Mar-27 03:16N 53°27' W 005°30'8915.4
2020-Mar-26 21:30N 53°27' W 003°01'0 0.0
2020-Mar-26 20:59N 53°27' W 003°01'0 0.0
2020-Mar-26 17:58N 53°27' W 003°01'0 0.0
2020-Mar-26 17:28N 53°27' W 003°01'13 5.4
2020-Mar-26 15:01N 53°31' W 003°22'2616.3
2020-Mar-26 13:25N 53°33' W 004°06'6317.8
2020-Mar-26 09:54N 53°24' W 005°50'719.4
2020-Mar-26 09:31N 53°21' W 006°01'7 4.1
2020-Mar-26 07:48N 53°21' W 006°13'0 0.0
2020-Mar-26 07:06N 53°21' W 006°13'0 0.0
2020-Mar-26 07:00N 53°21' W 006°13'0 0.0
2020-Mar-26 06:24N 53°21' W 006°13'0 0.0
2020-Mar-26 05:41N 53°21' W 006°13'0 0.0
2020-Mar-26 05:30N 53°21' W 006°13'10 9.6
2020-Mar-26 04:30N 53°22' W 005°57'2019.1
2020-Mar-26 03:26N 53°27' W 005°24'7817.5
2020-Mar-25 23:00N 53°31' W 003°14'8 3.3
2020-Mar-25 20:30N 53°27' W 003°01'6 1.1
2020-Mar-25 15:31N 53°31' W 003°08'3315.7
2020-Mar-25 13:25N 53°33' W 004°03'23 1.6
2020-Mar-24 23:01N 53°33' W 003°25'1510.1
2020-Mar-24 21:30N 53°27' W 003°01'0 0.3
2020-Mar-24 19:59N 53°27' W 003°01'0 0.0
2020-Mar-24 19:29N 53°27' W 003°01'0 0.0
2020-Mar-24 18:59N 53°27' W 003°01'0 0.0
2020-Mar-24 17:28N 53°27' W 003°01'0 0.1
2020-Mar-24 17:00N 53°27' W 003°01'9 6.1
2020-Mar-24 15:30N 53°31' W 003°15'2617.2
2020-Mar-24 14:00N 53°33' W 003°58'10 0.7
2020-Mar-23 23:30N 53°34' W 003°42'2610.0
2020-Mar-23 20:58N 53°27' W 003°01'0 0.0
2020-Mar-23 19:30N 53°27' W 003°01'0 0.0
2020-Mar-23 13:28N 53°27' W 003°01'0 0.0
2020-Mar-23 13:00N 53°27' W 003°01'0 0.0
2020-Mar-23 11:30N 53°27' W 003°01'0 0.0
2020-Mar-23 11:00N 53°27' W 003°01'0 0.0
2020-Mar-23 09:29N 53°27' W 003°01'0 0.0
2020-Mar-23 07:58N 53°27' W 003°01'0 0.2
2020-Mar-23 05:30N 53°27' W 003°01'7 7.4
2020-Mar-23 04:30N 53°32' W 003°11'2713.7
2020-Mar-23 02:30N 53°32' W 003°57'713.4
2020-Mar-23 02:00N 53°32' W 004°08'713.4
2020-Mar-23 01:30N 53°33' W 004°19'4213.9
2020-Mar-22 22:28N 53°27' W 005°29'27 7.9
2020-Mar-22 19:05N 53°21' W 006°13'0 0.0
2020-Mar-22 18:29N 53°21' W 006°13'0 0.1
2020-Mar-22 17:28N 53°21' W 006°13'0 0.0
2020-Mar-22 16:00N 53°21' W 006°13'0 0.0
2020-Mar-22 11:53N 53°21' W 006°13'0 0.0
2020-Mar-22 08:15N 53°21' W 006°13'0 0.0
2020-Mar-22 06:00N 53°21' W 006°13'9 8.9
2020-Mar-22 05:00N 53°22' W 005°58'8014.5
2020-Mar-21 23:30N 53°33' W 003°46'1616.2
2020-Mar-21 22:30N 53°32' W 003°19'12 5.6
2020-Mar-21 20:28N 53°27' W 003°01'0 0.0
2020-Mar-21 19:28N 53°27' W 003°01'0 0.0
2020-Mar-21 18:00N 53°27' W 003°01'0 0.0
2020-Mar-21 17:30N 53°27' W 003°01'0 0.4
2020-Mar-21 16:30N 53°27' W 003°01'4113.7
2020-Mar-21 13:30N 53°34' W 004°09'6817.1
2020-Mar-21 09:30N 53°21' W 006°02'82 8.6
2020-Mar-20 23:58N 53°34' W 003°46'1919.8
2020-Mar-20 23:00N 53°31' W 003°14'9 5.8
2020-Mar-20 21:30N 53°27' W 003°01'0 0.0
2020-Mar-20 21:00N 53°27' W 003°01'0 0.0
2020-Mar-20 20:29N 53°27' W 003°01'0 0.0
2020-Mar-20 19:29N 53°27' W 003°01'0 0.0
2020-Mar-20 18:59N 53°27' W 003°01'0 0.2
2020-Mar-20 17:00N 53°27' W 003°01'3 2.7
2020-Mar-20 16:00N 53°29' W 003°05'2416.1
2020-Mar-20 14:30N 53°31' W 003°45'917.9
2020-Mar-20 13:59N 53°33' W 004°00'7915.8
2020-Mar-20 09:00N 53°21' W 006°11'1 2.0
2020-Mar-20 08:29N 53°21' W 006°13'0 0.0
2020-Mar-20 05:49N 53°21' W 006°13'0 0.0
2020-Mar-20 05:30N 53°21' W 006°13'9714.9
2020-Mar-19 23:01N 53°34' W 003°32'917.5
2020-Mar-19 22:30N 53°32' W 003°18'11 4.3
2020-Mar-19 19:58N 53°27' W 003°01'0 0.0
2020-Mar-19 19:30N 53°27' W 003°01'0 0.0
2020-Mar-19 18:30N 53°27' W 003°01'0 0.2
2020-Mar-19 16:31N 53°27' W 003°01'2713.4
2020-Mar-19 14:31N 53°31' W 003°45'  
Track history (hours):
 
Tides and Currents Weather Stations Pressure Air Temp Water Temp Dewpoint Dewpoint Depression Visibility Wind Speed Wind Dir Waves Ship Positions

Norbank

Operator: P & O Ferries

Last reported at 2020-Mar-29 14:28 UTC. Time now 2020-Mar-29 15:55 UTC.
Position N 53°21' W 006°13'.

Length 167 m; draft 5.4 m.

Type: Ship (hazmat cat B). MMSI: 246213000.

Date/timePositionNaut miles runAvg speedWind from/ knotsBaromVisibWave heightAir tempDewpointWater temp
2020-Mar-29 14:28N 53°21' W 006°13'0 0.0
2020-Mar-29 13:16N 53°21' W 006°13'0 0.0
2020-Mar-29 12:58N 53°21' W 006°13'0 0.0
2020-Mar-29 12:30N 53°21' W 006°13'0 0.0
2020-Mar-29 11:30N 53°21' W 006°13'0 0.0
2020-Mar-29 08:56N 53°21' W 006°13'16 3.0
2020-Mar-29 03:30N 53°24' W 005°46'7216.7
2020-Mar-28 23:13N 53°33' W 003°47'2812.6
2020-Mar-28 21:00N 53°27' W 003°01'0 0.3
2020-Mar-28 19:28N 53°27' W 003°01'7 1.7
2020-Mar-28 15:30N 53°32' W 003°10'11015.0
2020-Mar-28 08:12N 53°21' W 006°13'0 0.0
2020-Mar-28 06:29N 53°21' W 006°13'0 0.0
2020-Mar-28 05:59N 53°21' W 006°13'10614.2
2020-Mar-27 22:30N 53°32' W 003°16'1010.3
2020-Mar-27 21:30N 53°27' W 003°01'0 0.1
2020-Mar-27 16:59N 53°27' W 003°01'0 0.9
2020-Mar-27 16:30N 53°27' W 003°01'0 0.3
2020-Mar-27 16:00N 53°27' W 003°01'1413.6
2020-Mar-27 15:00N 53°31' W 003°23'5116.2
2020-Mar-27 11:50N 53°35' W 004°49'2917.2
2020-Mar-27 10:09N 53°27' W 005°36'816.4
2020-Mar-27 09:41N 53°24' W 005°48'15 8.8
2020-Mar-27 07:57N 53°21' W 006°13'0 0.0
2020-Mar-27 05:47N 53°21' W 006°13'2610.5
2020-Mar-27 03:16N 53°27' W 005°30'8915.4
2020-Mar-26 21:30N 53°27' W 003°01'0 0.0
2020-Mar-26 20:59N 53°27' W 003°01'0 0.0
2020-Mar-26 17:58N 53°27' W 003°01'0 0.0
2020-Mar-26 17:28N 53°27' W 003°01'13 5.4
2020-Mar-26 15:01N 53°31' W 003°22'2616.3
2020-Mar-26 13:25N 53°33' W 004°06'6317.8
2020-Mar-26 09:54N 53°24' W 005°50'719.4
2020-Mar-26 09:31N 53°21' W 006°01'7 4.1
2020-Mar-26 07:48N 53°21' W 006°13'0 0.0
2020-Mar-26 07:06N 53°21' W 006°13'0 0.0
2020-Mar-26 07:00N 53°21' W 006°13'0 0.0
2020-Mar-26 06:24N 53°21' W 006°13'0 0.0
2020-Mar-26 05:41N 53°21' W 006°13'0 0.0
2020-Mar-26 05:30N 53°21' W 006°13'10 9.6
2020-Mar-26 04:30N 53°22' W 005°57'2019.1
2020-Mar-26 03:26N 53°27' W 005°24'7817.5
2020-Mar-25 23:00N 53°31' W 003°14'8 3.3
2020-Mar-25 20:30N 53°27' W 003°01'6 1.1
2020-Mar-25 15:31N 53°31' W 003°08'3315.7
2020-Mar-25 13:25N 53°33' W 004°03'23 1.6
2020-Mar-24 23:01N 53°33' W 003°25'1510.1
2020-Mar-24 21:30N 53°27' W 003°01'0 0.3
2020-Mar-24 19:59N 53°27' W 003°01'0 0.0
2020-Mar-24 19:29N 53°27' W 003°01'0 0.0
2020-Mar-24 18:59N 53°27' W 003°01'0 0.0
2020-Mar-24 17:28N 53°27' W 003°01'0 0.1
2020-Mar-24 17:00N 53°27' W 003°01'9 6.1
2020-Mar-24 15:30N 53°31' W 003°15'2617.2
2020-Mar-24 14:00N 53°33' W 003°58'10 0.7
2020-Mar-23 23:30N 53°34' W 003°42'2610.0
2020-Mar-23 20:58N 53°27' W 003°01'0 0.0
2020-Mar-23 19:30N 53°27' W 003°01'0 0.0
2020-Mar-23 13:28N 53°27' W 003°01'0 0.0
2020-Mar-23 13:00N 53°27' W 003°01'0 0.0
2020-Mar-23 11:30N 53°27' W 003°01'0 0.0
2020-Mar-23 11:00N 53°27' W 003°01'0 0.0
2020-Mar-23 09:29N 53°27' W 003°01'0 0.0
2020-Mar-23 07:58N 53°27' W 003°01'0 0.2
2020-Mar-23 05:30N 53°27' W 003°01'7 7.4
2020-Mar-23 04:30N 53°32' W 003°11'2713.7
2020-Mar-23 02:30N 53°32' W 003°57'713.4
2020-Mar-23 02:00N 53°32' W 004°08'713.4
2020-Mar-23 01:30N 53°33' W 004°19'4213.9
2020-Mar-22 22:28N 53°27' W 005°29'27 7.9
2020-Mar-22 19:05N 53°21' W 006°13'0 0.0
2020-Mar-22 18:29N 53°21' W 006°13'0 0.1
2020-Mar-22 17:28N 53°21' W 006°13'0 0.0
2020-Mar-22 16:00N 53°21' W 006°13'0 0.0
2020-Mar-22 11:53N 53°21' W 006°13'0 0.0
2020-Mar-22 08:15N 53°21' W 006°13'0 0.0
2020-Mar-22 06:00N 53°21' W 006°13'9 8.9
2020-Mar-22 05:00N 53°22' W 005°58'8014.5
2020-Mar-21 23:30N 53°33' W 003°46'1616.2
2020-Mar-21 22:30N 53°32' W 003°19'12 5.6
2020-Mar-21 20:28N 53°27' W 003°01'0 0.0
2020-Mar-21 19:28N 53°27' W 003°01'0 0.0
2020-Mar-21 18:00N 53°27' W 003°01'0 0.0
2020-Mar-21 17:30N 53°27' W 003°01'0 0.4
2020-Mar-21 16:30N 53°27' W 003°01'4113.7
2020-Mar-21 13:30N 53°34' W 004°09'6817.1
2020-Mar-21 09:30N 53°21' W 006°02'82 8.6
2020-Mar-20 23:58N 53°34' W 003°46'1919.8
2020-Mar-20 23:00N 53°31' W 003°14'9 5.8
2020-Mar-20 21:30N 53°27' W 003°01'0 0.0
2020-Mar-20 21:00N 53°27' W 003°01'0 0.0
2020-Mar-20 20:29N 53°27' W 003°01'0 0.0
2020-Mar-20 19:29N 53°27' W 003°01'0 0.0
2020-Mar-20 18:59N 53°27' W 003°01'0 0.2
2020-Mar-20 17:00N 53°27' W 003°01'3 2.7
2020-Mar-20 16:00N 53°29' W 003°05'2416.1
2020-Mar-20 14:30N 53°31' W 003°45'917.9
2020-Mar-20 13:59N 53°33' W 004°00'7915.8
2020-Mar-20 09:00N 53°21' W 006°11'1 2.0
2020-Mar-20 08:29N 53°21' W 006°13'0 0.0
2020-Mar-20 05:49N 53°21' W 006°13'0 0.0
2020-Mar-20 05:30N 53°21' W 006°13'9714.9
2020-Mar-19 23:01N 53°34' W 003°32'917.5
2020-Mar-19 22:30N 53°32' W 003°18'11 4.3
2020-Mar-19 19:58N 53°27' W 003°01'0 0.0
2020-Mar-19 19:30N 53°27' W 003°01'0 0.0
2020-Mar-19 18:30N 53°27' W 003°01'0 0.2
2020-Mar-19 16:31N 53°27' W 003°01'2713.4
2020-Mar-19 14:31N 53°31' W 003°45'  

Dump ship's entire track history